createdAt,value
2023-03-26T00:02:27.365Z,8.45
2023-03-26T00:06:10.301Z,8.36
2023-03-26T00:09:57.996Z,8.38
2023-03-26T00:13:47.197Z,8.44
2023-03-26T00:17:27.269Z,8.52
2023-03-26T00:21:07.747Z,8.63
2023-03-26T00:24:50.494Z,8.67
2023-03-26T00:28:32.211Z,8.61
2023-03-26T00:32:21.167Z,8.61
2023-03-26T00:36:10.405Z,8.61
2023-03-26T00:39:43.272Z,8.60
2023-03-26T00:43:32.128Z,8.62
2023-03-26T00:47:12.462Z,8.63
2023-03-26T00:50:35.432Z,8.66
2023-03-26T00:54:24.361Z,8.67
2023-03-26T00:57:56.622Z,8.67
2023-03-26T01:01:20.939Z,8.74
2023-03-26T01:05:22.207Z,8.69
2023-03-26T01:08:55.037Z,8.67
2023-03-26T01:12:12.301Z,8.69
2023-03-26T01:15:37.017Z,8.72
2023-03-26T01:19:10.428Z,8.75
2023-03-26T01:22:34.655Z,8.75
2023-03-26T01:26:18.645Z,8.74
2023-03-26T01:30:10.937Z,8.71
2023-03-26T01:34:02.728Z,8.79
2023-03-26T01:37:39.090Z,8.80
2023-03-26T01:41:13.733Z,8.90
2023-03-26T01:45:03.932Z,8.90
2023-03-26T01:48:19.831Z,8.98
2023-03-26T01:52:00.035Z,9.01
2023-03-26T01:55:09.800Z,8.97
2023-03-26T01:58:41.698Z,8.97
2023-03-26T02:02:29.562Z,8.95
2023-03-26T02:06:10.234Z,8.99
2023-03-26T02:09:52.594Z,9.02
2023-03-26T02:13:24.402Z,9.03
2023-03-26T02:16:50.360Z,9.05
2023-03-26T02:20:07.358Z,9.10
2023-03-26T02:23:39.303Z,9.21
2023-03-26T02:26:53.524Z,9.25
2023-03-26T02:30:25.180Z,9.26
2023-03-26T02:33:57.291Z,9.11
2023-03-26T02:37:15.919Z,9.11
2023-03-26T02:40:56.999Z,9.10
2023-03-26T02:44:24.112Z,9.01
2023-03-26T02:48:01.820Z,8.97
2023-03-26T02:51:35.024Z,8.98
2023-03-26T02:55:03.465Z,8.98
2023-03-26T02:58:42.187Z,8.95
2023-03-26T03:02:24.758Z,8.90
2023-03-26T03:06:13.810Z,8.89
2023-03-26T03:09:57.348Z,8.92
2023-03-26T03:13:29.482Z,8.86
2023-03-26T03:17:18.389Z,8.83
2023-03-26T03:20:57.239Z,8.82
2023-03-26T03:24:26.478Z,8.78
2023-03-26T03:28:15.301Z,8.76
2023-03-26T03:31:35.035Z,8.78
2023-03-26T03:35:12.865Z,8.79
2023-03-26T03:38:54.411Z,8.77
2023-03-26T03:42:43.220Z,8.78
2023-03-26T03:46:24.746Z,8.68
2023-03-26T03:49:43.116Z,8.74
2023-03-26T03:53:21.910Z,8.86
2023-03-26T03:56:47.639Z,8.91
2023-03-26T04:00:27.574Z,8.87
2023-03-26T04:04:19.356Z,8.88
2023-03-26T04:08:08.280Z,8.90
2023-03-26T04:11:46.135Z,8.85
2023-03-26T04:15:37.652Z,8.76
2023-03-26T04:19:08.422Z,8.74
2023-03-26T04:22:49.678Z,8.72
2023-03-26T04:26:38.479Z,8.73
2023-03-26T04:30:33.201Z,8.78
2023-03-26T04:34:15.545Z,8.79
2023-03-26T04:37:47.879Z,8.72
2023-03-26T04:41:37.370Z,8.69
2023-03-26T04:44:58.718Z,8.67
2023-03-26T04:48:28.638Z,8.71
2023-03-26T04:52:18.739Z,8.67
2023-03-26T04:56:28.875Z,8.71
2023-03-26T05:00:08.631Z,8.70
2023-03-26T05:03:57.628Z,8.74
2023-03-26T05:07:28.827Z,8.75
2023-03-26T05:10:59.962Z,8.66
2023-03-26T05:14:19.528Z,8.55
2023-03-26T05:18:08.414Z,8.58
2023-03-26T05:21:15.818Z,8.44
2023-03-26T05:24:54.785Z,8.47
2023-03-26T05:28:26.568Z,8.41
2023-03-26T05:32:14.805Z,8.39
2023-03-26T05:35:39.402Z,8.43
2023-03-26T05:39:28.287Z,8.57
2023-03-26T05:43:08.016Z,8.76
2023-03-26T05:46:43.671Z,8.82
2023-03-26T05:49:54.139Z,8.91
2023-03-26T05:53:22.054Z,8.88
2023-03-26T05:56:47.000Z,9.00
2023-03-26T06:00:35.031Z,9.12
2023-03-26T06:04:08.546Z,9.04
2023-03-26T06:07:18.901Z,8.98
2023-03-26T06:10:59.588Z,9.01
2023-03-26T06:14:41.746Z,9.11
2023-03-26T06:18:33.727Z,9.38
2023-03-26T06:22:21.665Z,9.57
2023-03-26T06:26:19.710Z,9.74
2023-03-26T06:29:51.763Z,9.74
2023-03-26T06:33:56.373Z,9.72
2023-03-26T06:37:13.648Z,9.65
2023-03-26T06:40:47.945Z,9.66
2023-03-26T06:44:28.616Z,9.75
2023-03-26T06:48:17.550Z,9.76
2023-03-26T06:51:45.013Z,9.64
2023-03-26T06:55:13.103Z,9.94
2023-03-26T06:58:52.913Z,10.20
2023-03-26T07:02:42.020Z,10.28
2023-03-26T07:06:03.432Z,10.24
2023-03-26T07:09:33.348Z,10.16
2023-03-26T07:13:00.758Z,10.03
2023-03-26T07:17:06.039Z,10.27
2023-03-26T07:20:55.335Z,10.21
2023-03-26T07:24:35.153Z,10.33
2023-03-26T07:28:40.253Z,10.40
2023-03-26T07:32:22.086Z,10.16
2023-03-26T07:36:24.618Z,10.21
2023-03-26T07:40:45.870Z,10.15
2023-03-26T07:45:02.907Z,10.18
2023-03-26T07:48:58.659Z,10.15
2023-03-26T07:53:00.586Z,10.23
2023-03-26T07:56:54.108Z,10.16
2023-03-26T08:00:35.450Z,10.28
2023-03-26T08:04:36.290Z,10.14
2023-03-26T08:08:21.362Z,10.24
2023-03-26T08:12:33.119Z,10.45
2023-03-26T08:16:22.726Z,10.60
2023-03-26T08:20:12.930Z,10.43
2023-03-26T08:24:02.075Z,10.59
2023-03-26T08:27:31.567Z,10.88
2023-03-26T08:31:12.710Z,11.30
2023-03-26T08:34:51.202Z,11.81
2023-03-26T08:38:30.323Z,12.00
2023-03-26T08:42:47.312Z,11.80
2023-03-26T08:46:28.016Z,11.64
2023-03-26T08:50:45.208Z,11.82
2023-03-26T08:54:26.931Z,11.99
2023-03-26T08:58:15.166Z,12.31
2023-03-26T09:02:20.684Z,12.39
2023-03-26T09:06:26.402Z,12.12
2023-03-26T09:10:15.512Z,12.23
2023-03-26T09:14:08.406Z,12.69
2023-03-26T09:17:25.319Z,12.90
2023-03-26T09:21:29.391Z,13.25
2023-03-26T09:25:15.952Z,13.05
2023-03-26T09:28:53.029Z,13.14
2023-03-26T09:32:39.474Z,13.28
2023-03-26T09:36:35.822Z,13.82
2023-03-26T09:40:34.538Z,14.43
2023-03-26T09:44:29.551Z,14.69
2023-03-26T09:48:01.570Z,14.52
2023-03-26T09:52:06.402Z,14.05
2023-03-26T09:55:48.672Z,13.45
2023-03-26T09:59:58.968Z,13.99
2023-03-26T10:03:42.084Z,14.42
2023-03-26T10:07:39.726Z,14.84
2023-03-26T10:11:33.593Z,13.56
2023-03-26T10:15:38.109Z,12.52
2023-03-26T10:19:42.748Z,12.31
2023-03-26T10:23:43.529Z,12.33
2023-03-26T10:27:38.934Z,12.86
2023-03-26T10:31:35.601Z,12.94
2023-03-26T10:35:20.152Z,13.39
2023-03-26T10:39:35.933Z,13.70
2023-03-26T10:43:24.812Z,13.76
2023-03-26T10:46:59.854Z,13.48
2023-03-26T10:51:04.331Z,13.09
2023-03-26T10:55:00.243Z,13.00
2023-03-26T10:58:49.083Z,12.72
2023-03-26T11:02:30.515Z,12.79
2023-03-26T11:06:24.963Z,12.98
2023-03-26T11:10:35.190Z,12.79
2023-03-26T11:14:35.597Z,12.39
2023-03-26T11:18:30.562Z,11.75
2023-03-26T11:22:39.414Z,11.79
2023-03-26T11:26:38.914Z,12.60
2023-03-26T11:30:23.324Z,13.26
2023-03-26T11:34:06.425Z,13.25
2023-03-26T11:37:40.264Z,13.67
2023-03-26T11:41:23.476Z,14.28
2023-03-26T11:45:23.290Z,14.44
2023-03-26T11:49:11.897Z,14.48
2023-03-26T11:53:02.036Z,14.64
2023-03-26T11:57:07.435Z,14.97
2023-03-26T12:00:50.127Z,15.14
2023-03-26T12:04:43.674Z,14.76
2023-03-26T12:08:11.624Z,14.37
2023-03-26T12:12:01.347Z,13.84
2023-03-26T12:15:15.152Z,12.74
2023-03-26T12:18:58.635Z,12.16
2023-03-26T12:22:47.779Z,11.86
2023-03-26T12:26:40.893Z,11.85
2023-03-26T12:30:33.454Z,12.27
2023-03-26T12:34:23.651Z,12.85
2023-03-26T12:38:14.964Z,12.59
2023-03-26T12:44:47.835Z,12.77
2023-03-26T12:47:26.480Z,12.65
2023-03-26T12:49:10.499Z,12.94
2023-03-26T12:52:56.164Z,13.22
2023-03-26T12:57:11.975Z,12.76
2023-03-26T13:01:20.622Z,12.74
2023-03-26T13:05:31.417Z,13.66
2023-03-26T13:09:45.294Z,14.07
2023-03-26T13:13:48.251Z,14.41
2023-03-26T13:17:47.602Z,14.44
2023-03-26T13:21:45.633Z,14.81
2023-03-26T13:25:40.443Z,14.78
2023-03-26T13:29:23.324Z,14.90
2023-03-26T13:33:10.742Z,14.99
2023-03-26T13:37:21.889Z,14.93
2023-03-26T13:41:22.462Z,14.17
2023-03-26T13:45:21.740Z,13.82
2023-03-26T13:49:13.460Z,13.98
2023-03-26T13:52:55.161Z,13.62
2023-03-26T13:56:51.267Z,13.73
2023-03-26T14:00:43.370Z,13.83
2023-03-26T14:04:31.299Z,13.67
2023-03-26T14:08:09.190Z,13.62
2023-03-26T14:12:22.313Z,13.56
2023-03-26T14:16:28.453Z,13.72
2023-03-26T14:20:16.562Z,13.72
2023-03-26T14:24:05.927Z,13.71
2023-03-26T14:27:36.917Z,13.31
2023-03-26T14:31:20.837Z,13.03
2023-03-26T14:35:26.629Z,12.93
2023-03-26T14:39:15.370Z,13.07
2023-03-26T14:43:10.685Z,12.99
2023-03-26T14:47:16.614Z,13.03
2023-03-26T14:51:12.464Z,12.98
2023-03-26T14:54:59.710Z,13.08
2023-03-26T14:58:51.649Z,13.21
2023-03-26T15:02:48.182Z,13.16
2023-03-26T15:06:29.135Z,13.30
2023-03-26T15:10:29.927Z,13.24
2023-03-26T15:14:22.272Z,13.04
2023-03-26T15:18:19.315Z,12.99
2023-03-26T15:22:10.264Z,13.12
2023-03-26T15:26:04.131Z,13.14
2023-03-26T15:29:47.205Z,13.02
2023-03-26T15:33:44.132Z,12.89
2023-03-26T15:37:16.447Z,12.56
2023-03-26T15:40:43.312Z,12.64
2023-03-26T15:44:23.396Z,12.71
2023-03-26T15:48:14.915Z,12.69
2023-03-26T15:52:03.010Z,12.94
2023-03-26T15:56:05.235Z,12.97
2023-03-26T16:00:02.436Z,12.98
2023-03-26T16:03:52.824Z,12.99
2023-03-26T16:07:43.209Z,13.04
2023-03-26T16:11:30.882Z,13.04
2023-03-26T16:14:57.406Z,12.86
2023-03-26T16:18:36.480Z,12.73
2023-03-26T16:22:16.937Z,12.54
2023-03-26T16:26:33.900Z,12.52
2023-03-26T16:30:15.392Z,12.55
2023-03-26T16:34:18.857Z,12.48
2023-03-26T16:37:59.038Z,12.27
2023-03-26T16:41:56.973Z,11.80
2023-03-26T16:45:48.506Z,11.66
2023-03-26T16:49:28.580Z,11.66
2023-03-26T16:53:16.176Z,11.57
2023-03-26T16:57:07.708Z,11.62
2023-03-26T17:00:53.867Z,11.54
2023-03-26T17:04:45.906Z,11.23
2023-03-26T17:08:35.155Z,11.13
2023-03-26T17:12:23.540Z,11.16
2023-03-26T17:16:22.689Z,11.10
2023-03-26T17:19:51.198Z,11.03
2023-03-26T17:23:26.347Z,10.93
2023-03-26T17:27:31.250Z,10.82
2023-03-26T17:31:53.809Z,10.66
2023-03-26T17:35:18.077Z,10.53
2023-03-26T17:38:53.254Z,10.39
2023-03-26T17:42:21.249Z,10.12
2023-03-26T17:45:46.175Z,9.99
2023-03-26T17:49:03.456Z,9.84
2023-03-26T17:52:48.102Z,9.78
2023-03-26T17:56:24.241Z,9.70
2023-03-26T17:59:38.731Z,9.65
2023-03-26T18:03:06.336Z,9.71
2023-03-26T18:06:51.007Z,9.76
2023-03-26T18:10:44.793Z,9.73
2023-03-26T18:14:02.424Z,9.31
2023-03-26T18:17:20.844Z,9.06
2023-03-26T18:20:37.966Z,9.08
2023-03-26T18:23:37.780Z,9.15
2023-03-26T18:27:19.757Z,9.09
2023-03-26T18:30:44.257Z,9.11
2023-03-26T18:34:20.383Z,9.14
2023-03-26T18:38:05.357Z,9.15
2023-03-26T18:42:00.032Z,9.14
2023-03-26T18:45:06.417Z,9.05
2023-03-26T18:48:50.288Z,9.02
2023-03-26T18:52:43.104Z,8.94
2023-03-26T18:56:14.210Z,8.86
2023-03-26T18:59:57.866Z,8.90
2023-03-26T19:03:17.655Z,8.91
2023-03-26T19:06:57.891Z,8.87
2023-03-26T19:10:29.852Z,8.81
2023-03-26T19:14:31.030Z,8.78
2023-03-26T19:18:34.915Z,8.73
2023-03-26T19:21:47.292Z,8.64
2023-03-26T19:25:17.630Z,8.52
2023-03-26T19:29:12.105Z,8.35
2023-03-26T19:32:37.015Z,8.31
2023-03-26T19:36:21.289Z,8.30
2023-03-26T19:40:14.302Z,8.26
2023-03-26T19:43:46.700Z,8.28
2023-03-26T19:47:46.111Z,8.29
2023-03-26T19:51:10.788Z,8.21
2023-03-26T19:55:01.344Z,8.11
2023-03-26T19:58:41.056Z,7.88
2023-03-26T20:02:33.327Z,7.76
2023-03-26T20:06:33.892Z,7.72
2023-03-26T20:10:01.072Z,7.68
2023-03-26T20:13:56.461Z,7.64
2023-03-26T20:17:28.620Z,7.47
2023-03-26T20:20:53.338Z,7.41
2023-03-26T20:24:29.619Z,7.41
2023-03-26T20:28:19.825Z,7.38
2023-03-26T20:32:08.615Z,7.28
2023-03-26T20:35:36.181Z,7.25
2023-03-26T20:39:08.649Z,7.17
2023-03-26T20:42:43.391Z,7.15
2023-03-26T20:46:11.719Z,7.08
2023-03-26T20:49:20.826Z,6.96
2023-03-26T20:52:46.368Z,6.81
2023-03-26T20:56:17.747Z,6.75
2023-03-26T20:59:23.942Z,6.68
2023-03-26T21:02:27.591Z,6.73
2023-03-26T21:05:40.758Z,6.78
2023-03-26T21:09:30.280Z,6.71
2023-03-26T21:13:22.375Z,6.68
2023-03-26T21:16:30.430Z,6.58
2023-03-26T21:20:08.017Z,6.46
2023-03-26T21:23:50.220Z,6.31
2023-03-26T21:27:33.078Z,6.20
2023-03-26T21:31:02.712Z,6.10
2023-03-26T21:34:23.110Z,6.10
2023-03-26T21:37:30.148Z,6.10
2023-03-26T21:44:18.429Z,6.30
2023-03-26T21:47:14.877Z,6.42
2023-03-26T21:50:22.294Z,6.48
2023-03-26T21:53:54.934Z,6.50
2023-03-26T21:57:40.566Z,6.53
2023-03-26T22:01:41.535Z,6.49
2023-03-26T22:05:07.721Z,6.41
2023-03-26T22:08:59.560Z,6.40
2023-03-26T22:12:17.975Z,6.31
2023-03-26T22:15:58.790Z,6.26
2023-03-26T22:19:18.177Z,6.20
2023-03-26T22:22:58.202Z,6.14
2023-03-26T22:26:16.172Z,6.10
2023-03-26T22:29:55.492Z,6.07
2023-03-26T22:33:15.653Z,6.05
2023-03-26T22:36:46.900Z,6.04
2023-03-26T22:40:18.394Z,6.03
2023-03-26T22:44:19.228Z,5.99
2023-03-26T22:48:09.149Z,5.87
2023-03-26T22:51:18.695Z,5.74
2023-03-26T22:54:43.336Z,5.70
2023-03-26T22:57:44.509Z,5.65
2023-03-26T23:01:31.069Z,5.54
2023-03-26T23:04:59.671Z,5.51
2023-03-26T23:08:28.651Z,5.53
2023-03-26T23:11:57.708Z,5.48
2023-03-26T23:15:47.002Z,5.44
2023-03-26T23:19:13.976Z,5.42
2023-03-26T23:22:49.504Z,5.48
2023-03-26T23:26:37.740Z,5.47
2023-03-26T23:30:06.705Z,5.44
2023-03-26T23:33:29.411Z,5.44
2023-03-26T23:36:47.699Z,5.53
2023-03-26T23:40:11.897Z,5.47
2023-03-26T23:43:55.472Z,5.34
2023-03-26T23:47:26.810Z,5.33
2023-03-26T23:51:03.773Z,5.31
2023-03-26T23:54:56.648Z,5.27
2023-03-26T23:58:27.180Z,5.24
